createdAt,value
2018-12-24T00:00:47.122Z,99992.22
2018-12-24T00:03:13.505Z,99996.88
2018-12-24T00:05:39.789Z,99996.88
2018-12-24T00:08:06.124Z,99999.10
2018-12-24T00:10:32.507Z,99998.73
2018-12-24T00:12:58.795Z,99998.73
2018-12-24T00:15:25.125Z,99995.25
2018-12-24T00:17:51.527Z,99994.41
2018-12-24T00:20:17.911Z,99993.87
2018-12-24T00:22:44.241Z,99995.20
2018-12-24T00:25:10.633Z,99990.12
2018-12-24T00:27:36.917Z,99985.07
2018-12-24T00:30:03.239Z,99985.56
2018-12-24T00:32:29.528Z,99986.06
2018-12-24T00:34:56.071Z,99980.58
2018-12-24T00:37:22.359Z,99988.47
2018-12-24T00:39:48.641Z,99980.89
2018-12-24T00:42:15.907Z,99988.81
2018-12-24T00:44:43.264Z,99985.06
2018-12-24T00:47:09.543Z,99977.73
2018-12-24T00:49:35.826Z,99977.13
2018-12-24T00:52:02.253Z,99972.57
2018-12-24T00:54:28.597Z,99974.76
2018-12-24T00:56:54.931Z,99967.44
2018-12-24T00:59:21.250Z,99969.91
2018-12-24T01:01:48.882Z,99961.70
2018-12-24T01:04:15.821Z,99962.84
2018-12-24T01:06:42.247Z,99956.86
2018-12-24T01:09:08.528Z,99962.84
2018-12-24T01:11:34.814Z,99951.30
2018-12-24T01:14:01.229Z,99941.88
2018-12-24T01:16:27.505Z,99943.41
2018-12-24T01:18:53.780Z,99938.30
2018-12-24T01:21:20.094Z,99937.39
2018-12-24T01:23:46.376Z,99938.11
2018-12-24T01:26:12.663Z,99935.55
2018-12-24T01:28:38.985Z,99932.55
2018-12-24T01:31:05.275Z,99928.70
2018-12-24T01:33:31.561Z,99924.38
2018-12-24T01:35:58.071Z,99924.86
2018-12-24T01:38:24.354Z,99919.39
2018-12-24T01:40:50.635Z,99916.20
2018-12-24T01:43:16.953Z,99911.31
2018-12-24T01:45:43.230Z,99903.44
2018-12-24T01:48:09.512Z,99890.44
2018-12-24T01:50:35.840Z,99889.78
2018-12-24T01:53:02.117Z,99891.74
2018-12-24T01:55:28.401Z,99886.59
2018-12-24T01:57:54.779Z,99876.17
2018-12-24T02:00:21.063Z,99874.64
2018-12-24T02:02:47.344Z,99871.38
2018-12-24T02:05:13.647Z,99866.44
2018-12-24T02:07:39.935Z,99866.45
2018-12-24T02:10:06.217Z,99857.56
2018-12-24T02:12:32.552Z,99850.08
2018-12-24T02:14:58.835Z,99850.77
2018-12-24T02:17:25.217Z,99848.95
2018-12-24T02:19:51.532Z,99842.13
2018-12-24T02:22:17.818Z,99831.44
2018-12-24T02:24:44.102Z,99825.34
2018-12-24T02:27:10.415Z,99827.71
2018-12-24T02:29:36.818Z,99820.73
2018-12-24T02:32:03.092Z,99812.91
2018-12-24T02:34:29.411Z,99805.39
2018-12-24T02:36:55.702Z,99791.70
2018-12-24T02:39:21.981Z,99791.23
2018-12-24T02:41:48.299Z,99784.12
2018-12-24T02:44:14.692Z,99768.81
2018-12-24T02:46:40.998Z,99756.47
2018-12-24T02:49:07.282Z,99753.97
2018-12-24T02:51:33.675Z,99743.52
2018-12-24T02:54:00.069Z,99743.64
2018-12-24T02:56:26.388Z,99739.09
2018-12-24T02:58:52.836Z,99741.67
2018-12-24T03:01:19.219Z,99729.95
2018-12-24T03:03:45.537Z,99723.78
2018-12-24T03:06:11.825Z,99713.03
2018-12-24T03:08:38.104Z,99710.20
2018-12-24T03:11:04.511Z,99701.20
2018-12-24T03:13:30.794Z,99686.60
2018-12-24T03:15:57.084Z,99673.70
2018-12-24T03:18:23.416Z,99666.73
2018-12-24T03:20:49.704Z,99662.55
2018-12-24T03:23:15.990Z,99658.44
2018-12-24T03:25:42.297Z,99650.48
2018-12-24T03:28:08.682Z,99637.88
2018-12-24T03:30:34.961Z,99634.75
2018-12-24T03:33:01.310Z,99635.85
2018-12-24T03:35:27.657Z,99637.20
2018-12-24T03:37:53.938Z,99631.75
2018-12-24T03:40:20.458Z,99622.77
2018-12-24T03:42:46.745Z,99619.19
2018-12-24T03:45:13.129Z,99611.86
2018-12-24T03:47:39.550Z,99598.08
2018-12-24T03:50:05.841Z,99602.14
2018-12-24T03:52:32.145Z,99591.55
2018-12-24T03:57:38.114Z,99584.20
2018-12-24T04:03:04.890Z,99575.99
2018-12-24T04:05:31.178Z,99564.69
2018-12-24T04:07:57.575Z,99558.71
2018-12-24T04:10:23.904Z,99550.23
2018-12-24T04:12:50.187Z,99541.27
2018-12-24T04:15:16.561Z,99534.91
2018-12-24T04:17:42.993Z,99529.25
2018-12-24T04:20:09.483Z,99523.39
2018-12-24T04:22:35.771Z,99516.36
2018-12-24T04:25:02.192Z,99503.83
2018-12-24T04:27:28.480Z,99499.55
2018-12-24T04:29:54.754Z,99481.58
2018-12-24T04:32:21.063Z,99470.36
2018-12-24T04:34:47.349Z,99472.75
2018-12-24T04:37:13.730Z,99459.31
2018-12-24T04:39:40.058Z,99442.00
2018-12-24T04:42:06.335Z,99431.41
2018-12-24T04:44:32.618Z,99437.95
2018-12-24T04:46:59.029Z,99429.91
2018-12-24T04:49:25.304Z,99426.56
2018-12-24T04:51:51.587Z,99406.98
2018-12-24T04:54:17.903Z,99392.80
2018-12-24T04:56:44.188Z,99386.35
2018-12-24T04:59:10.466Z,99393.68
2018-12-24T05:01:36.878Z,99390.70
2018-12-24T05:04:03.167Z,99397.39
2018-12-24T05:06:29.442Z,99386.78
2018-12-24T05:08:55.761Z,99385.14
2018-12-24T05:11:22.061Z,99379.58
2018-12-24T05:13:48.359Z,99372.47
2018-12-24T05:16:14.682Z,99374.11
2018-12-24T05:18:40.973Z,99368.77
2018-12-24T05:21:07.255Z,99360.52
2018-12-24T05:23:33.595Z,99357.69
2018-12-24T05:25:59.881Z,99357.61
2018-12-24T05:28:26.241Z,99351.59
2018-12-24T05:30:52.714Z,99354.06
2018-12-24T05:33:19.133Z,99361.02
2018-12-24T05:35:45.519Z,99360.22
2018-12-24T05:38:11.945Z,99359.84
2018-12-24T05:40:38.324Z,99356.94
2018-12-24T05:43:04.612Z,99351.84
2018-12-24T05:45:30.947Z,99346.70
2018-12-24T05:47:57.341Z,99352.60
2018-12-24T05:50:23.717Z,99351.13
2018-12-24T05:52:50.047Z,99347.34
2018-12-24T05:55:16.334Z,99345.87
2018-12-24T05:57:42.610Z,99337.11
2018-12-24T06:00:09.040Z,99333.08
2018-12-24T06:02:35.377Z,99330.93
2018-12-24T06:05:01.738Z,99335.12
2018-12-24T06:07:28.089Z,99347.72
2018-12-24T06:09:54.377Z,99344.33
2018-12-24T06:12:20.648Z,99340.77
2018-12-24T06:14:47.092Z,99334.99
2018-12-24T06:20:27.055Z,99329.87
2018-12-24T06:22:53.334Z,99319.48
2018-12-24T06:25:19.622Z,99319.21
2018-12-24T06:27:45.934Z,99316.34
2018-12-24T06:30:12.345Z,99313.39
2018-12-24T06:33:20.170Z,99300.30
2018-12-24T06:35:46.447Z,99292.39
2018-12-24T06:38:12.838Z,99274.25
2018-12-24T06:40:39.175Z,99262.31
2018-12-24T06:43:05.558Z,99257.96
2018-12-24T06:45:31.850Z,99246.23
2018-12-24T06:47:58.263Z,99258.69
2018-12-24T06:50:24.561Z,99248.45
2018-12-24T06:52:50.843Z,99242.67
2018-12-24T06:55:17.164Z,99243.37
2018-12-24T06:57:43.460Z,99240.56
2018-12-24T07:00:09.746Z,99240.28
2018-12-24T07:02:36.062Z,99224.88
2018-12-24T07:05:02.348Z,99217.55
2018-12-24T07:07:28.643Z,99216.91
2018-12-24T07:09:54.960Z,99221.02
2018-12-24T07:12:21.253Z,99218.84
2018-12-24T07:14:47.652Z,99215.95
2018-12-24T07:17:14.083Z,99209.61
2018-12-24T07:19:40.417Z,99200.16
2018-12-24T07:22:06.865Z,99202.25
2018-12-24T07:24:33.180Z,99204.27
2018-12-24T07:26:59.585Z,99199.05
2018-12-24T07:29:25.977Z,99186.82
2018-12-24T07:31:52.306Z,99187.17
2018-12-24T07:34:18.590Z,99180.18
2018-12-24T07:36:44.885Z,99182.70
2018-12-24T07:39:11.210Z,99174.38
2018-12-24T07:41:37.488Z,99176.91
2018-12-24T07:44:03.767Z,99168.31
2018-12-24T07:46:30.092Z,99163.16
2018-12-24T07:48:56.397Z,99164.38
2018-12-24T07:51:22.677Z,99155.30
2018-12-24T07:53:48.994Z,99140.71
2018-12-24T07:56:15.297Z,99131.40
2018-12-24T07:58:41.604Z,99130.88
2018-12-24T08:01:07.923Z,99126.42
2018-12-24T08:03:34.219Z,99127.93
2018-12-24T08:06:00.655Z,99126.37
2018-12-24T08:10:59.215Z,99108.33
2018-12-24T08:13:25.508Z,99095.94
2018-12-24T08:15:51.829Z,99088.84
2018-12-24T08:18:18.230Z,99088.33
2018-12-24T08:20:44.526Z,99085.05
2018-12-24T08:23:10.967Z,99085.73
2018-12-24T08:25:37.379Z,99076.58
2018-12-24T08:28:03.792Z,99069.39
2018-12-24T08:30:30.117Z,99069.67
2018-12-24T08:32:56.408Z,99045.58
2018-12-24T08:35:22.706Z,99053.78
2018-12-24T08:37:49.139Z,99042.38
2018-12-24T08:40:15.603Z,99029.27
2018-12-24T08:42:41.935Z,99024.69
2018-12-24T08:45:08.351Z,99021.09
2018-12-24T08:47:34.637Z,99013.04
2018-12-24T08:50:00.930Z,99010.20
2018-12-24T08:52:27.257Z,98997.94
2018-12-24T08:54:53.544Z,98987.91
2018-12-24T08:57:19.887Z,98986.16
2018-12-24T08:59:46.278Z,98980.88
2018-12-24T09:02:12.563Z,98970.67
2018-12-24T09:04:38.845Z,98956.06
2018-12-24T09:07:05.175Z,98951.05
2018-12-24T09:09:31.577Z,98939.94
2018-12-24T09:11:57.991Z,98933.33
2018-12-24T09:14:24.407Z,98914.66
2018-12-24T09:16:50.711Z,98920.77
2018-12-24T09:19:17.007Z,98915.58
2018-12-24T09:21:43.320Z,98898.52
2018-12-24T09:24:09.704Z,98894.63
2018-12-24T09:26:35.988Z,98882.96
2018-12-24T09:29:02.414Z,98866.47
2018-12-24T09:31:28.708Z,98856.56
2018-12-24T09:33:54.999Z,98860.38
2018-12-24T09:36:21.337Z,98865.19
2018-12-24T09:38:47.625Z,98848.85
2018-12-24T09:41:13.905Z,98827.09
2018-12-24T09:43:40.422Z,98810.82
2018-12-24T09:46:06.830Z,98795.50
2018-12-24T09:48:33.110Z,98789.16
2018-12-24T09:50:59.575Z,98787.56
2018-12-24T09:53:25.905Z,98779.63
2018-12-24T09:55:52.201Z,98764.02
2018-12-24T09:58:18.647Z,98763.75
2018-12-24T10:00:44.926Z,98755.69
2018-12-24T10:03:11.210Z,98747.87
2018-12-24T10:05:37.527Z,98744.94
2018-12-24T10:11:04.184Z,98739.46
2018-12-24T10:13:30.498Z,98736.77
2018-12-24T10:15:56.792Z,98725.41
2018-12-24T10:18:23.228Z,98703.98
2018-12-24T10:20:49.527Z,98697.27
2018-12-24T10:23:15.808Z,98694.69
2018-12-24T10:25:42.110Z,98684.37
2018-12-24T10:28:08.528Z,98673.50
2018-12-24T10:30:34.804Z,98662.20
2018-12-24T10:33:01.225Z,98661.20
2018-12-24T10:35:27.621Z,98658.41
2018-12-24T10:45:38.473Z,98634.56
2018-12-24T10:48:04.639Z,98646.17
2018-12-24T10:50:30.814Z,98633.52
2018-12-24T10:52:57.011Z,98628.30
2018-12-24T10:55:23.186Z,98619.61
2018-12-24T10:57:49.380Z,98622.21
2018-12-24T11:00:15.591Z,98603.06
2018-12-24T11:02:41.744Z,98602.36
2018-12-24T11:05:07.894Z,98576.37
2018-12-24T11:07:34.092Z,98565.00
2018-12-24T11:13:04.899Z,98551.59
2018-12-24T11:15:31.052Z,98561.89
2018-12-24T11:17:57.205Z,98565.63
2018-12-24T11:20:23.399Z,98570.56
2018-12-24T11:22:49.593Z,98579.00
2018-12-24T11:25:15.767Z,98573.72
2018-12-24T11:27:42.089Z,98571.98
2018-12-24T11:30:08.244Z,98555.59
2018-12-24T11:32:34.404Z,98554.80
2018-12-24T11:35:00.717Z,98546.66
2018-12-24T11:37:26.869Z,98545.63
2018-12-24T11:39:53.032Z,98539.75
2018-12-24T11:42:19.312Z,98522.98
2018-12-24T11:44:45.587Z,98521.16
2018-12-24T11:47:11.757Z,98525.77
2018-12-24T11:49:37.942Z,98527.83
2018-12-24T11:52:04.190Z,98520.73
2018-12-24T11:54:30.453Z,98507.59
2018-12-24T11:56:56.655Z,98511.02
2018-12-24T11:59:22.809Z,98517.02
2018-12-24T12:01:49.074Z,98519.95
2018-12-24T12:04:15.296Z,98520.13
2018-12-24T12:06:41.568Z,98529.05
2018-12-24T12:09:07.733Z,98524.79
2018-12-24T12:11:34.092Z,98521.23
2018-12-24T12:14:00.271Z,98522.19
2018-12-24T12:16:26.421Z,98523.81
2018-12-24T12:18:52.616Z,98525.50
2018-12-24T12:21:18.767Z,98509.48
2018-12-24T12:23:45.031Z,98513.10
2018-12-24T12:26:11.233Z,98507.37
2018-12-24T12:28:37.401Z,98515.13
2018-12-24T12:31:03.566Z,98503.53
2018-12-24T12:33:29.752Z,98508.86
2018-12-24T12:35:55.922Z,98510.96
2018-12-24T12:38:29.585Z,98520.36
2018-12-24T12:40:50.234Z,98511.61
2018-12-24T12:43:16.509Z,98511.64
2018-12-24T12:45:50.970Z,98505.77
2018-12-24T12:48:10.862Z,98501.68
2018-12-24T12:50:37.047Z,98505.18
2018-12-24T12:53:03.204Z,98506.61
2018-12-24T12:55:29.388Z,98506.91
2018-12-24T12:57:55.554Z,98507.71
2018-12-24T13:03:14.201Z,98497.48
2018-12-24T13:05:40.360Z,98496.42
2018-12-24T13:08:06.416Z,98490.09
2018-12-24T13:10:32.613Z,98493.37
2018-12-24T13:12:58.878Z,98499.54
2018-12-24T13:15:25.047Z,98495.50
2018-12-24T13:17:51.393Z,98499.75
2018-12-24T13:20:24.822Z,98500.94
2018-12-24T13:22:45.595Z,98490.75
2018-12-24T13:25:11.809Z,98485.49
2018-12-24T13:27:38.185Z,98480.82
2018-12-24T13:30:45.790Z,98485.41
2018-12-24T13:33:11.953Z,98491.05
2018-12-24T13:35:38.103Z,98491.09
2018-12-24T13:38:04.293Z,98484.40
2018-12-24T13:40:30.451Z,98488.90
2018-12-24T13:42:56.617Z,98484.56
2018-12-24T13:45:22.825Z,98482.39
2018-12-24T13:47:49.093Z,98483.27
2018-12-24T13:50:15.252Z,98485.29
2018-12-24T13:52:41.456Z,98481.41
2018-12-24T13:55:07.611Z,98486.16
2018-12-24T14:04:28.527Z,98469.87
2018-12-24T14:06:54.691Z,98463.38
2018-12-24T14:09:20.858Z,98468.85
2018-12-24T14:11:47.052Z,98467.61
2018-12-24T14:14:13.230Z,98467.20
2018-12-24T14:16:39.395Z,98465.12
2018-12-24T14:26:01.327Z,98451.95
2018-12-24T14:28:27.490Z,98458.02
2018-12-24T14:30:53.656Z,98478.30
2018-12-24T14:33:20.033Z,98480.27
2018-12-24T14:35:46.307Z,98460.85
2018-12-24T14:38:12.578Z,98472.50
2018-12-24T14:40:38.781Z,98472.91
2018-12-24T14:43:04.941Z,98462.53
2018-12-24T14:45:31.203Z,98459.98
2018-12-24T14:47:57.398Z,98461.42
2018-12-24T14:50:23.726Z,98466.02
2018-12-24T15:04:14.903Z,98475.41
2018-12-24T15:06:41.066Z,98484.39
2018-12-24T15:16:02.702Z,98482.58
2018-12-24T15:18:28.862Z,98486.27
2018-12-24T15:34:55.096Z,98539.38
2018-12-24T15:37:21.312Z,98556.20
2018-12-24T15:39:47.477Z,98572.21
2018-12-24T15:44:46.070Z,98589.03
2018-12-24T15:47:12.873Z,98593.75
2018-12-24T15:49:40.465Z,98613.11
2018-12-24T15:52:06.755Z,98620.03
2018-12-24T15:54:32.921Z,98635.63
2018-12-24T15:56:59.127Z,98639.20
2018-12-24T15:59:25.291Z,98636.54
2018-12-24T16:01:51.664Z,98637.00
2018-12-24T16:04:17.866Z,98667.83
2018-12-24T16:06:44.025Z,98679.16
2018-12-24T16:09:10.230Z,98676.91
2018-12-24T16:15:19.104Z,98676.41
2018-12-24T16:17:45.311Z,98690.31
2018-12-24T16:20:11.473Z,98678.06
2018-12-24T16:22:37.667Z,98678.80
2018-12-24T16:25:03.956Z,98704.99
2018-12-24T16:27:30.128Z,98680.33
2018-12-24T16:29:56.332Z,98682.44
2018-12-24T16:32:22.491Z,98700.09
2018-12-24T16:34:48.665Z,98706.47
2018-12-24T16:37:14.972Z,98702.70
2018-12-24T16:39:41.149Z,98689.63
2018-12-24T16:42:07.324Z,98704.86
2018-12-24T16:44:33.628Z,98699.03
2018-12-24T16:46:59.801Z,98716.85
2018-12-24T16:49:25.986Z,98711.59
2018-12-24T16:51:52.174Z,98726.66
2018-12-24T16:54:18.445Z,98726.88
2018-12-24T16:56:44.603Z,98731.94
2018-12-24T16:59:10.794Z,98738.55
2018-12-24T17:01:36.957Z,98756.98
2018-12-24T17:04:03.118Z,98745.31
2018-12-24T17:06:29.324Z,98742.84
2018-12-24T17:08:55.482Z,98760.63
2018-12-24T17:11:21.648Z,98778.91
2018-12-24T17:13:47.956Z,98767.78
2018-12-24T17:16:14.215Z,98780.23
2018-12-24T17:18:40.434Z,98792.66
2018-12-24T17:21:06.659Z,98802.84
2018-12-24T17:23:32.830Z,98815.77
2018-12-24T17:25:58.989Z,98836.68
2018-12-24T17:28:25.180Z,98838.74
2018-12-24T17:30:51.346Z,98853.52
2018-12-24T17:33:17.518Z,98860.74
2018-12-24T17:35:43.718Z,98868.44
2018-12-24T17:38:09.886Z,98878.56
2018-12-24T17:40:36.192Z,98873.57
2018-12-24T17:43:02.389Z,98886.41
2018-12-24T17:45:28.556Z,98894.05
2018-12-24T17:47:54.710Z,98905.81
2018-12-24T17:50:20.905Z,98905.88
2018-12-24T17:52:47.070Z,98902.52
2018-12-24T17:55:13.238Z,98898.98
2018-12-24T17:57:39.539Z,98914.76
2018-12-24T18:00:05.803Z,98905.34
2018-12-24T18:02:31.975Z,98907.69
2018-12-24T18:04:58.677Z,98914.98
2018-12-24T18:07:25.174Z,98915.41
2018-12-24T18:09:51.461Z,98925.14
2018-12-24T18:12:18.083Z,98927.46
2018-12-24T18:14:44.549Z,98931.59
2018-12-24T18:17:10.858Z,98948.06
2018-12-24T18:19:37.189Z,98960.22
2018-12-24T18:22:03.348Z,98990.16
2018-12-24T18:24:29.518Z,98964.55
2018-12-24T18:26:55.728Z,98967.53
2018-12-24T18:29:22.099Z,98967.58
2018-12-24T18:31:48.256Z,98992.31
2018-12-24T18:34:14.471Z,99000.14
2018-12-24T18:36:40.732Z,98988.95
2018-12-24T18:39:06.895Z,99010.90
2018-12-24T18:41:33.083Z,99009.77
2018-12-24T18:43:59.241Z,99027.80
2018-12-24T18:46:25.399Z,99036.02
2018-12-24T18:48:51.595Z,99040.33
2018-12-24T18:51:17.751Z,99047.08
2018-12-24T18:53:43.909Z,99061.49
2018-12-24T18:56:10.098Z,99061.98
2018-12-24T18:58:36.260Z,99052.35
2018-12-24T19:01:02.425Z,99067.06
2018-12-24T19:06:07.642Z,99077.36
2018-12-24T19:08:33.943Z,99088.84
2018-12-24T19:11:00.335Z,99089.58
2018-12-24T19:13:26.530Z,99089.59
2018-12-24T19:15:52.688Z,99112.80
2018-12-24T19:18:18.851Z,99098.28
2018-12-24T19:20:45.189Z,99118.06
2018-12-24T19:23:11.351Z,99106.38
2018-12-24T19:25:37.525Z,99100.41
2018-12-24T19:28:03.715Z,99131.81
2018-12-24T19:30:29.986Z,99125.67
2018-12-24T19:32:56.171Z,99138.66
2018-12-24T19:35:22.381Z,99141.66
2018-12-24T19:37:48.541Z,99185.58
2018-12-24T19:40:14.695Z,99179.71
2018-12-24T19:42:40.896Z,99168.49
2018-12-24T19:45:07.071Z,99193.01
2018-12-24T19:47:33.229Z,99176.84
2018-12-24T19:49:59.432Z,99182.33
2018-12-24T19:52:25.944Z,99191.37
2018-12-24T19:54:52.108Z,99191.03
2018-12-24T19:57:19.255Z,99183.95
2018-12-24T19:59:45.416Z,99207.50
2018-12-24T20:02:17.025Z,99204.73
2018-12-24T20:04:43.224Z,99208.64
2018-12-24T20:07:09.380Z,99196.68
2018-12-24T20:09:35.928Z,99219.64
2018-12-24T20:12:02.253Z,99206.26
2018-12-24T20:14:28.423Z,99211.00
2018-12-24T20:16:55.057Z,99235.77
2018-12-24T20:19:21.255Z,99241.14
2018-12-24T20:21:47.558Z,99245.30
2018-12-24T20:24:13.845Z,99244.77
2018-12-24T20:26:40.034Z,99256.61
2018-12-24T20:29:06.237Z,99253.97
2018-12-24T20:31:32.508Z,99253.75
2018-12-24T20:33:58.648Z,99265.70
2018-12-24T20:36:24.799Z,99286.20
2018-12-24T20:38:50.960Z,99302.70
2018-12-24T20:41:17.260Z,99292.80
2018-12-24T20:43:43.423Z,99295.53
2018-12-24T20:46:09.702Z,99287.45
2018-12-24T20:48:35.896Z,99295.94
2018-12-24T20:51:02.220Z,99313.75
2018-12-24T20:53:28.420Z,99320.55
2018-12-24T20:55:54.605Z,99316.61
2018-12-24T20:58:21.210Z,99326.85
2018-12-24T21:00:48.391Z,99322.11
2018-12-24T21:03:15.640Z,99316.63
2018-12-24T21:05:41.815Z,99303.30
2018-12-24T21:08:08.072Z,99308.31
2018-12-24T21:10:34.377Z,99305.63
2018-12-24T21:13:00.543Z,99312.91
2018-12-24T21:15:26.796Z,99318.24
2018-12-24T21:17:53.148Z,99308.71
2018-12-24T21:20:19.310Z,99298.41
2018-12-24T21:22:45.575Z,99306.73
2018-12-24T21:25:11.770Z,99320.95
2018-12-24T21:27:37.943Z,99347.30
2018-12-24T21:30:45.533Z,99362.99
2018-12-24T21:33:11.685Z,99359.11
2018-12-24T21:35:38.209Z,99369.36
2018-12-24T21:38:04.402Z,99370.83
2018-12-24T21:40:30.663Z,99361.00
2018-12-24T21:42:56.824Z,99358.66
2018-12-24T21:45:23.129Z,99358.10
2018-12-24T21:47:49.288Z,99359.72
2018-12-24T21:50:15.443Z,99354.84
2018-12-24T21:52:41.640Z,99343.21
2018-12-24T21:55:07.798Z,99357.47
2018-12-24T21:57:33.960Z,99366.33
2018-12-24T22:00:41.561Z,99371.30
2018-12-24T22:03:07.817Z,99385.41
2018-12-24T22:08:25.914Z,99380.25
2018-12-24T22:10:52.172Z,99378.96
2018-12-24T22:13:18.472Z,99386.09
2018-12-24T22:15:44.794Z,99382.81
2018-12-24T22:18:10.967Z,99399.63
2018-12-24T22:20:37.125Z,99411.27
2018-12-24T22:23:03.440Z,99406.40
2018-12-24T22:25:29.605Z,99412.02
2018-12-24T22:27:55.773Z,99414.34
2018-12-24T22:30:21.961Z,99412.23
2018-12-24T22:32:48.120Z,99421.19
2018-12-24T22:35:14.276Z,99421.11
2018-12-24T22:37:40.468Z,99423.03
2018-12-24T22:40:06.759Z,99445.52
2018-12-24T22:42:32.925Z,99425.93
2018-12-24T22:44:59.117Z,99447.23
2018-12-24T22:47:25.275Z,99447.57
2018-12-24T22:49:51.437Z,99462.19
2018-12-24T22:52:17.617Z,99457.79
2018-12-24T22:54:43.778Z,99436.17
2018-12-24T22:57:09.947Z,99436.69
2018-12-24T22:59:36.137Z,99438.17
2018-12-24T23:04:49.924Z,99453.36
2018-12-24T23:07:16.078Z,99435.69
2018-12-24T23:09:42.232Z,99435.94
2018-12-24T23:12:08.426Z,99447.63
2018-12-24T23:14:34.580Z,99435.30
2018-12-24T23:17:00.735Z,99442.88
2018-12-24T23:20:08.349Z,99454.89
2018-12-24T23:22:34.511Z,99453.71
2018-12-24T23:25:00.684Z,99460.61
2018-12-24T23:27:26.978Z,99451.64
2018-12-24T23:29:53.231Z,99461.48
2018-12-24T23:32:19.381Z,99452.70
2018-12-24T23:34:45.663Z,99451.46
2018-12-24T23:37:31.575Z,99475.80
2018-12-24T23:39:57.768Z,99438.89
2018-12-24T23:42:24.032Z,99470.02
2018-12-24T23:44:50.193Z,99493.73
2018-12-24T23:47:16.469Z,99494.45
2018-12-24T23:49:42.956Z,99513.79
2018-12-24T23:52:09.099Z,99498.74
2018-12-24T23:54:35.289Z,99495.09
2018-12-24T23:57:01.446Z,99524.50
2018-12-24T23:59:27.601Z,99511.33
